sensor_id;sensor_type;location;lat;lon;timestamp;temperature;humidity
71039;SHT30;58692;43.212;27.908;2024-03-23T00:56:00;5.62;78.31
71039;SHT30;58692;43.212;27.908;2024-03-23T00:58:25;5.63;77.91
71039;SHT30;58692;43.212;27.908;2024-03-23T01:00:51;5.56;77.79
71039;SHT30;58692;43.212;27.908;2024-03-23T01:03:17;5.56;77.70
71039;SHT30;58692;43.212;27.908;2024-03-23T01:05:42;5.52;77.87
71039;SHT30;58692;43.212;27.908;2024-03-23T01:08:08;5.54;77.83
71039;SHT30;58692;43.212;27.908;2024-03-23T01:10:33;5.41;78.28
71039;SHT30;58692;43.212;27.908;2024-03-23T01:12:59;5.37;78.14
71039;SHT30;58692;43.212;27.908;2024-03-23T01:15:25;5.35;78.52
71039;SHT30;58692;43.212;27.908;2024-03-23T01:17:50;5.37;78.49
71039;SHT30;58692;43.212;27.908;2024-03-23T01:20:16;5.35;78.66
71039;SHT30;58692;43.212;27.908;2024-03-23T01:22:42;5.38;78.57
71039;SHT30;58692;43.212;27.908;2024-03-23T01:25:07;5.35;78.58
71039;SHT30;58692;43.212;27.908;2024-03-23T01:27:33;5.37;78.43
71039;SHT30;58692;43.212;27.908;2024-03-23T01:29:59;5.34;78.33
71039;SHT30;58692;43.212;27.908;2024-03-23T01:32:25;5.32;78.38
71039;SHT30;58692;43.212;27.908;2024-03-23T01:34:50;5.21;78.38
71039;SHT30;58692;43.212;27.908;2024-03-23T01:37:16;5.07;79.02
71039;SHT30;58692;43.212;27.908;2024-03-23T01:39:42;5.11;78.79
71039;SHT30;58692;43.212;27.908;2024-03-23T01:42:07;5.16;78.68
71039;SHT30;58692;43.212;27.908;2024-03-23T01:44:33;5.14;78.80
71039;SHT30;58692;43.212;27.908;2024-03-23T01:46:58;5.16;78.80
71039;SHT30;58692;43.212;27.908;2024-03-23T01:49:24;5.11;78.78
71039;SHT30;58692;43.212;27.908;2024-03-23T01:51:50;5.21;78.71
71039;SHT30;58692;43.212;27.908;2024-03-23T01:54:16;5.21;78.59
71039;SHT30;58692;43.212;27.908;2024-03-23T01:56:41;5.16;78.58
71039;SHT30;58692;43.212;27.908;2024-03-23T01:59:07;5.20;78.46
71039;SHT30;58692;43.212;27.908;2024-03-23T02:01:35;5.17;78.53
71039;SHT30;58692;43.212;27.908;2024-03-23T02:04:02;5.19;78.45
71039;SHT30;58692;43.212;27.908;2024-03-23T02:06:28;5.13;78.74
71039;SHT30;58692;43.212;27.908;2024-03-23T02:08:54;5.00;79.45
71039;SHT30;58692;43.212;27.908;2024-03-23T02:11:20;5.04;79.87
71039;SHT30;58692;43.212;27.908;2024-03-23T02:13:46;4.93;80.24
71039;SHT30;58692;43.212;27.908;2024-03-23T02:16:11;4.70;80.96
71039;SHT30;58692;43.212;27.908;2024-03-23T02:18:38;4.77;81.01
71039;SHT30;58692;43.212;27.908;2024-03-23T02:21:04;4.83;80.82
71039;SHT30;58692;43.212;27.908;2024-03-23T02:23:29;4.72;81.11
71039;SHT30;58692;43.212;27.908;2024-03-23T02:25:55;4.75;81.06
71039;SHT30;58692;43.212;27.908;2024-03-23T02:28:20;4.79;81.15
71039;SHT30;58692;43.212;27.908;2024-03-23T02:30:49;4.81;81.09
71039;SHT30;58692;43.212;27.908;2024-03-23T02:33:15;4.84;80.83
71039;SHT30;58692;43.212;27.908;2024-03-23T02:35:41;4.77;81.00
71039;SHT30;58692;43.212;27.908;2024-03-23T02:38:06;4.65;81.44
71039;SHT30;58692;43.212;27.908;2024-03-23T02:40:32;4.72;81.25
71039;SHT30;58692;43.212;27.908;2024-03-23T02:42:58;4.67;81.26
71039;SHT30;58692;43.212;27.908;2024-03-23T02:45:23;4.70;80.88
71039;SHT30;58692;43.212;27.908;2024-03-23T02:47:49;4.73;80.82
71039;SHT30;58692;43.212;27.908;2024-03-23T02:50:18;4.73;80.86
71039;SHT30;58692;43.212;27.908;2024-03-23T02:52:44;4.69;81.28
71039;SHT30;58692;43.212;27.908;2024-03-23T02:55:10;4.62;81.58
71039;SHT30;58692;43.212;27.908;2024-03-23T02:57:35;4.66;81.63
71039;SHT30;58692;43.212;27.908;2024-03-23T03:00:01;4.60;81.94
71039;SHT30;58692;43.212;27.908;2024-03-23T03:02:26;4.56;82.38
71039;SHT30;58692;43.212;27.908;2024-03-23T03:04:52;4.62;82.08
71039;SHT30;58692;43.212;27.908;2024-03-23T03:07:18;4.56;82.15
71039;SHT30;58692;43.212;27.908;2024-03-23T03:09:43;4.52;82.27
71039;SHT30;58692;43.212;27.908;2024-03-23T03:12:09;4.59;82.27
71039;SHT30;58692;43.212;27.908;2024-03-23T03:14:35;4.69;81.93
71039;SHT30;58692;43.212;27.908;2024-03-23T03:17:00;4.65;82.14
71039;SHT30;58692;43.212;27.908;2024-03-23T03:19:26;4.63;82.11
71039;SHT30;58692;43.212;27.908;2024-03-23T03:21:52;4.66;81.83
71039;SHT30;58692;43.212;27.908;2024-03-23T03:24:18;4.57;81.90
71039;SHT30;58692;43.212;27.908;2024-03-23T03:26:43;4.60;81.90
71039;SHT30;58692;43.212;27.908;2024-03-23T03:29:09;4.65;81.69
71039;SHT30;58692;43.212;27.908;2024-03-23T03:31:35;4.65;81.45
71039;SHT30;58692;43.212;27.908;2024-03-23T03:34:01;4.63;81.30
71039;SHT30;58692;43.212;27.908;2024-03-23T03:36:27;4.66;81.21
71039;SHT30;58692;43.212;27.908;2024-03-23T03:38:53;4.67;81.18
71039;SHT30;58692;43.212;27.908;2024-03-23T03:41:19;4.59;81.12
71039;SHT30;58692;43.212;27.908;2024-03-23T03:43:44;4.49;81.33
71039;SHT30;58692;43.212;27.908;2024-03-23T03:46:10;4.59;81.32
71039;SHT30;58692;43.212;27.908;2024-03-23T03:48:36;4.63;80.94
71039;SHT30;58692;43.212;27.908;2024-03-23T03:51:02;4.52;81.04
71039;SHT30;58692;43.212;27.908;2024-03-23T03:53:28;4.48;81.14
71039;SHT30;58692;43.212;27.908;2024-03-23T03:55:54;4.41;81.27
71039;SHT30;58692;43.212;27.908;2024-03-23T03:58:19;4.29;81.68
71039;SHT30;58692;43.212;27.908;2024-03-23T04:00:45;4.32;81.77
71039;SHT30;58692;43.212;27.908;2024-03-23T04:03:10;4.26;82.25
71039;SHT30;58692;43.212;27.908;2024-03-23T04:05:36;4.25;82.47
71039;SHT30;58692;43.212;27.908;2024-03-23T04:08:01;4.31;82.39
71039;SHT30;58692;43.212;27.908;2024-03-23T04:10:27;4.25;82.34
71039;SHT30;58692;43.212;27.908;2024-03-23T04:12:53;4.06;83.14
71039;SHT30;58692;43.212;27.908;2024-03-23T04:15:19;4.05;83.34
71039;SHT30;58692;43.212;27.908;2024-03-23T04:17:45;4.06;83.05
71039;SHT30;58692;43.212;27.908;2024-03-23T04:20:11;3.94;83.49
71039;SHT30;58692;43.212;27.908;2024-03-23T04:22:39;3.98;83.54
71039;SHT30;58692;43.212;27.908;2024-03-23T04:25:05;4.02;83.18
71039;SHT30;58692;43.212;27.908;2024-03-23T04:27:33;3.95;83.22
71039;SHT30;58692;43.212;27.908;2024-03-23T04:29:59;3.97;82.83
71039;SHT30;58692;43.212;27.908;2024-03-23T04:32:26;4.05;82.66
71039;SHT30;58692;43.212;27.908;2024-03-23T04:34:53;4.04;82.48
71039;SHT30;58692;43.212;27.908;2024-03-23T04:37:18;4.12;82.26
71039;SHT30;58692;43.212;27.908;2024-03-23T04:39:45;4.25;81.57
71039;SHT30;58692;43.212;27.908;2024-03-23T04:42:10;4.38;81.18
71039;SHT30;58692;43.212;27.908;2024-03-23T04:44:37;4.53;80.71
71039;SHT30;58692;43.212;27.908;2024-03-23T04:47:03;4.59;80.26
71039;SHT30;58692;43.212;27.908;2024-03-23T04:49:28;4.81;79.74
71039;SHT30;58692;43.212;27.908;2024-03-23T04:51:54;4.94;78.98
71039;SHT30;58692;43.212;27.908;2024-03-23T04:54:20;4.97;78.92
71039;SHT30;58692;43.212;27.908;2024-03-23T04:56:45;5.31;77.91
71039;SHT30;58692;43.212;27.908;2024-03-23T04:59:11;5.55;77.00
71039;SHT30;58692;43.212;27.908;2024-03-23T05:01:37;5.76;76.49
71039;SHT30;58692;43.212;27.908;2024-03-23T05:04:05;6.07;75.86
71039;SHT30;58692;43.212;27.908;2024-03-23T05:06:31;6.24;75.08
71039;SHT30;58692;43.212;27.908;2024-03-23T05:08:56;6.19;74.93
71039;SHT30;58692;43.212;27.908;2024-03-23T05:11:22;6.46;74.33
71039;SHT30;58692;43.212;27.908;2024-03-23T05:13:47;6.68;73.72
71039;SHT30;58692;43.212;27.908;2024-03-23T05:16:13;6.98;72.83
71039;SHT30;58692;43.212;27.908;2024-03-23T05:18:39;7.19;72.01
71039;SHT30;58692;43.212;27.908;2024-03-23T05:21:04;7.29;71.85
71039;SHT30;58692;43.212;27.908;2024-03-23T05:23:30;7.39;71.36
71039;SHT30;58692;43.212;27.908;2024-03-23T05:25:56;7.52;71.01
71039;SHT30;58692;43.212;27.908;2024-03-23T05:28:22;7.55;70.86
71039;SHT30;58692;43.212;27.908;2024-03-23T05:30:52;7.40;71.34
71039;SHT30;58692;43.212;27.908;2024-03-23T05:33:19;7.59;71.14
71039;SHT30;58692;43.212;27.908;2024-03-23T05:35:45;7.93;70.43
71039;SHT30;58692;43.212;27.908;2024-03-23T05:38:11;8.37;69.17
71039;SHT30;58692;43.212;27.908;2024-03-23T05:40:37;8.45;68.85
71039;SHT30;58692;43.212;27.908;2024-03-23T05:43:03;8.99;67.71
71039;SHT30;58692;43.212;27.908;2024-03-23T05:45:29;9.44;66.28
71039;SHT30;58692;43.212;27.908;2024-03-23T05:47:55;9.70;65.74
71039;SHT30;58692;43.212;27.908;2024-03-23T05:50:22;9.82;64.87
71039;SHT30;58692;43.212;27.908;2024-03-23T05:52:49;9.58;65.44
71039;SHT30;58692;43.212;27.908;2024-03-23T05:55:15;9.58;65.27
71039;SHT30;58692;43.212;27.908;2024-03-23T05:57:41;10.18;64.66
71039;SHT30;58692;43.212;27.908;2024-03-23T06:00:08;10.13;64.18
71039;SHT30;58692;43.212;27.908;2024-03-23T06:02:42;10.55;63.30
71039;SHT30;58692;43.212;27.908;2024-03-23T06:05:11;10.96;62.25
71039;SHT30;58692;43.212;27.908;2024-03-23T06:07:37;11.13;61.98
71039;SHT30;58692;43.212;27.908;2024-03-23T06:10:05;11.28;61.21
71039;SHT30;58692;43.212;27.908;2024-03-23T06:12:31;11.92;60.24
71039;SHT30;58692;43.212;27.908;2024-03-23T06:14:57;12.09;59.68
71039;SHT30;58692;43.212;27.908;2024-03-23T06:17:23;12.44;59.10
71039;SHT30;58692;43.212;27.908;2024-03-23T06:19:49;12.63;58.33
71039;SHT30;58692;43.212;27.908;2024-03-23T06:22:15;12.95;57.97
71039;SHT30;58692;43.212;27.908;2024-03-23T06:24:40;12.80;58.32
71039;SHT30;58692;43.212;27.908;2024-03-23T06:27:06;13.07;57.78
71039;SHT30;58692;43.212;27.908;2024-03-23T06:29:31;12.94;57.39
71039;SHT30;58692;43.212;27.908;2024-03-23T06:31:57;13.22;57.38
71039;SHT30;58692;43.212;27.908;2024-03-23T06:34:23;13.70;56.48
71039;SHT30;58692;43.212;27.908;2024-03-23T06:36:50;14.06;55.68
71039;SHT30;58692;43.212;27.908;2024-03-23T06:39:16;14.24;55.84
71039;SHT30;58692;43.212;27.908;2024-03-23T06:41:51;14.37;55.52
71039;SHT30;58692;43.212;27.908;2024-03-23T06:44:18;14.52;55.22
71039;SHT30;58692;43.212;27.908;2024-03-23T06:46:44;14.52;55.18
71039;SHT30;58692;43.212;27.908;2024-03-23T06:49:10;14.82;55.05
71039;SHT30;58692;43.212;27.908;2024-03-23T06:51:36;14.82;55.49
71039;SHT30;58692;43.212;27.908;2024-03-23T06:54:03;14.93;54.66
71039;SHT30;58692;43.212;27.908;2024-03-23T06:56:29;14.93;55.37
71039;SHT30;58692;43.212;27.908;2024-03-23T06:58:55;15.52;54.36
71039;SHT30;58692;43.212;27.908;2024-03-23T07:01:21;15.43;54.38
71039;SHT30;58692;43.212;27.908;2024-03-23T07:03:46;15.39;54.79
71039;SHT30;58692;43.212;27.908;2024-03-23T07:06:12;15.84;54.17
71039;SHT30;58692;43.212;27.908;2024-03-23T07:08:38;15.76;54.49
71039;SHT30;58692;43.212;27.908;2024-03-23T07:11:03;16.29;53.60
71039;SHT30;58692;43.212;27.908;2024-03-23T07:13:30;16.56;52.83
71039;SHT30;58692;43.212;27.908;2024-03-23T07:15:56;16.48;52.94
71039;SHT30;58692;43.212;27.908;2024-03-23T07:18:23;16.80;51.76
71039;SHT30;58692;43.212;27.908;2024-03-23T07:23:19;17.23;51.44
71039;SHT30;58692;43.212;27.908;2024-03-23T07:25:45;17.75;50.44
71039;SHT30;58692;43.212;27.908;2024-03-23T07:28:10;17.67;50.17
71039;SHT30;58692;43.212;27.908;2024-03-23T07:30:36;17.91;49.74
71039;SHT30;58692;43.212;27.908;2024-03-23T07:33:02;17.90;49.22
71039;SHT30;58692;43.212;27.908;2024-03-23T07:35:27;18.53;48.50
71039;SHT30;58692;43.212;27.908;2024-03-23T07:37:53;18.36;48.47
71039;SHT30;58692;43.212;27.908;2024-03-23T07:40:18;18.79;47.76
71039;SHT30;58692;43.212;27.908;2024-03-23T07:42:45;19.04;46.58
71039;SHT30;58692;43.212;27.908;2024-03-23T07:45:11;19.38;46.71
71039;SHT30;58692;43.212;27.908;2024-03-23T07:47:37;19.48;46.51
71039;SHT30;58692;43.212;27.908;2024-03-23T07:50:02;20.23;45.44
71039;SHT30;58692;43.212;27.908;2024-03-23T07:52:28;20.51;44.46
71039;SHT30;58692;43.212;27.908;2024-03-23T07:54:54;20.59;43.78
71039;SHT30;58692;43.212;27.908;2024-03-23T07:57:20;20.20;44.11
71039;SHT30;58692;43.212;27.908;2024-03-23T07:59:45;20.64;42.93
71039;SHT30;58692;43.212;27.908;2024-03-23T08:02:11;20.32;43.38
71039;SHT30;58692;43.212;27.908;2024-03-23T08:04:37;20.81;42.09
71039;SHT30;58692;43.212;27.908;2024-03-23T08:07:03;20.00;43.54
71039;SHT30;58692;43.212;27.908;2024-03-23T08:09:28;20.28;43.48
71039;SHT30;58692;43.212;27.908;2024-03-23T08:11:54;20.39;43.15
71039;SHT30;58692;43.212;27.908;2024-03-23T08:14:20;21.18;42.61
71039;SHT30;58692;43.212;27.908;2024-03-23T08:16:45;20.93;42.49
71039;SHT30;58692;43.212;27.908;2024-03-23T08:19:14;21.00;42.02
71039;SHT30;58692;43.212;27.908;2024-03-23T08:21:40;20.77;42.54
71039;SHT30;58692;43.212;27.908;2024-03-23T08:24:06;21.03;42.71
71039;SHT30;58692;43.212;27.908;2024-03-23T08:26:31;21.22;42.17
71039;SHT30;58692;43.212;27.908;2024-03-23T08:28:58;21.63;41.54
71039;SHT30;58692;43.212;27.908;2024-03-23T08:31:23;21.79;40.45
71039;SHT30;58692;43.212;27.908;2024-03-23T08:33:49;21.37;41.20
71039;SHT30;58692;43.212;27.908;2024-03-23T08:36:15;21.52;40.42
71039;SHT30;58692;43.212;27.908;2024-03-23T08:38:40;21.96;39.96
71039;SHT30;58692;43.212;27.908;2024-03-23T08:41:09;21.35;40.27
71039;SHT30;58692;43.212;27.908;2024-03-23T08:43:38;20.64;40.88
71039;SHT30;58692;43.212;27.908;2024-03-23T08:46:06;21.25;40.33
71039;SHT30;58692;43.212;27.908;2024-03-23T08:48:34;20.97;40.34
71039;SHT30;58692;43.212;27.908;2024-03-23T08:53:28;21.81;39.30
71039;SHT30;58692;43.212;27.908;2024-03-23T08:55:55;21.32;39.92
71039;SHT30;58692;43.212;27.908;2024-03-23T08:58:21;21.95;39.91
71039;SHT30;58692;43.212;27.908;2024-03-23T09:00:47;22.61;38.64
71039;SHT30;58692;43.212;27.908;2024-03-23T09:03:12;22.50;37.81
71039;SHT30;58692;43.212;27.908;2024-03-23T09:05:39;22.65;37.89
71039;SHT30;58692;43.212;27.908;2024-03-23T09:08:05;22.63;37.95
71039;SHT30;58692;43.212;27.908;2024-03-23T09:10:31;22.40;37.84
71039;SHT30;58692;43.212;27.908;2024-03-23T09:12:57;22.88;37.30
71039;SHT30;58692;43.212;27.908;2024-03-23T09:15:23;22.75;37.90
71039;SHT30;58692;43.212;27.908;2024-03-23T09:17:48;22.65;37.55
71039;SHT30;58692;43.212;27.908;2024-03-23T09:20:14;23.42;36.70
71039;SHT30;58692;43.212;27.908;2024-03-23T09:22:39;23.32;36.41
71039;SHT30;58692;43.212;27.908;2024-03-23T09:25:05;22.10;41.30
71039;SHT30;58692;43.212;27.908;2024-03-23T09:27:31;21.30;42.25
71039;SHT30;58692;43.212;27.908;2024-03-23T09:29:57;20.53;43.28
71039;SHT30;58692;43.212;27.908;2024-03-23T09:32:22;19.74;44.65
71039;SHT30;58692;43.212;27.908;2024-03-23T09:34:48;19.44;45.24
71039;SHT30;58692;43.212;27.908;2024-03-23T09:37:13;19.23;46.73
71039;SHT30;58692;43.212;27.908;2024-03-23T09:39:39;18.53;46.40
71039;SHT30;58692;43.212;27.908;2024-03-23T09:42:06;18.63;46.65
71039;SHT30;58692;43.212;27.908;2024-03-23T09:44:31;18.49;46.29
71039;SHT30;58692;43.212;27.908;2024-03-23T09:46:57;18.57;46.69
71039;SHT30;58692;43.212;27.908;2024-03-23T09:49:23;18.05;48.18
71039;SHT30;58692;43.212;27.908;2024-03-23T09:51:48;18.86;46.58
71039;SHT30;58692;43.212;27.908;2024-03-23T09:54:14;18.60;46.91
71039;SHT30;58692;43.212;27.908;2024-03-23T09:56:40;18.51;47.29
71039;SHT30;58692;43.212;27.908;2024-03-23T09:59:05;19.26;46.53
71039;SHT30;58692;43.212;27.908;2024-03-23T10:01:31;18.86;47.06
71039;SHT30;58692;43.212;27.908;2024-03-23T10:03:57;19.28;46.14
71039;SHT30;58692;43.212;27.908;2024-03-23T10:06:23;19.07;46.47
71039;SHT30;58692;43.212;27.908;2024-03-23T10:08:52;18.59;47.71
71039;SHT30;58692;43.212;27.908;2024-03-23T10:11:20;18.97;47.57
71039;SHT30;58692;43.212;27.908;2024-03-23T10:13:47;19.06;47.51
71039;SHT30;58692;43.212;27.908;2024-03-23T10:16:21;18.62;47.77
71039;SHT30;58692;43.212;27.908;2024-03-23T10:18:47;18.52;47.57
71039;SHT30;58692;43.212;27.908;2024-03-23T10:21:15;18.15;46.95
71039;SHT30;58692;43.212;27.908;2024-03-23T10:23:42;18.33;48.03
71039;SHT30;58692;43.212;27.908;2024-03-23T10:26:18;18.01;48.35
71039;SHT30;58692;43.212;27.908;2024-03-23T10:28:55;18.66;45.97
71039;SHT30;58692;43.212;27.908;2024-03-23T10:31:25;18.48;45.07
71039;SHT30;58692;43.212;27.908;2024-03-23T10:33:51;17.90;45.70
71039;SHT30;58692;43.212;27.908;2024-03-23T10:36:19;17.27;48.02
71039;SHT30;58692;43.212;27.908;2024-03-23T10:38:46;17.26;47.45
71039;SHT30;58692;43.212;27.908;2024-03-23T10:41:12;18.66;46.31
71039;SHT30;58692;43.212;27.908;2024-03-23T10:43:39;18.83;45.58
71039;SHT30;58692;43.212;27.908;2024-03-23T10:46:05;17.82;47.50
71039;SHT30;58692;43.212;27.908;2024-03-23T10:48:32;18.02;48.88
71039;SHT30;58692;43.212;27.908;2024-03-23T10:50:58;18.74;48.37
71039;SHT30;58692;43.212;27.908;2024-03-23T10:53:28;18.48;50.52
71039;SHT30;58692;43.212;27.908;2024-03-23T10:55:55;17.97;49.52
71039;SHT30;58692;43.212;27.908;2024-03-23T10:58:26;18.00;51.01
71039;SHT30;58692;43.212;27.908;2024-03-23T11:00:53;17.03;52.38
71039;SHT30;58692;43.212;27.908;2024-03-23T11:03:36;17.49;52.62
71039;SHT30;58692;43.212;27.908;2024-03-23T11:06:03;17.30;51.58
71039;SHT30;58692;43.212;27.908;2024-03-23T11:08:39;17.46;51.54
71039;SHT30;58692;43.212;27.908;2024-03-23T11:11:20;17.29;53.00
71039;SHT30;58692;43.212;27.908;2024-03-23T11:13:50;17.34;52.87
71039;SHT30;58692;43.212;27.908;2024-03-23T11:16:21;17.22;52.77
71039;SHT30;58692;43.212;27.908;2024-03-23T11:18:47;17.81;53.01
71039;SHT30;58692;43.212;27.908;2024-03-23T11:24:16;18.67;51.81
71039;SHT30;58692;43.212;27.908;2024-03-23T11:26:42;17.92;53.23
71039;SHT30;58692;43.212;27.908;2024-03-23T11:29:10;18.00;54.11
71039;SHT30;58692;43.212;27.908;2024-03-23T11:31:37;17.60;53.29
71039;SHT30;58692;43.212;27.908;2024-03-23T11:34:05;17.36;52.95
71039;SHT30;58692;43.212;27.908;2024-03-23T11:36:30;17.47;52.13
71039;SHT30;58692;43.212;27.908;2024-03-23T11:38:56;17.43;53.07
71039;SHT30;58692;43.212;27.908;2024-03-23T11:41:22;17.97;51.59
71039;SHT30;58692;43.212;27.908;2024-03-23T11:43:47;17.59;51.75
71039;SHT30;58692;43.212;27.908;2024-03-23T11:46:22;17.77;50.70
71039;SHT30;58692;43.212;27.908;2024-03-23T11:48:51;17.95;48.78
71039;SHT30;58692;43.212;27.908;2024-03-23T11:51:17;17.69;49.04
71039;SHT30;58692;43.212;27.908;2024-03-23T11:53:43;17.98;49.59
71039;SHT30;58692;43.212;27.908;2024-03-23T11:56:08;17.70;50.69
71039;SHT30;58692;43.212;27.908;2024-03-23T11:58:34;18.62;49.02
71039;SHT30;58692;43.212;27.908;2024-03-23T12:01:02;18.11;48.57
71039;SHT30;58692;43.212;27.908;2024-03-23T12:03:29;17.91;49.39
71039;SHT30;58692;43.212;27.908;2024-03-23T12:05:57;17.91;50.20
71039;SHT30;58692;43.212;27.908;2024-03-23T12:08:24;17.78;48.15
71039;SHT30;58692;43.212;27.908;2024-03-23T12:11:03;17.87;49.99
71039;SHT30;58692;43.212;27.908;2024-03-23T12:13:29;17.15;51.05
71039;SHT30;58692;43.212;27.908;2024-03-23T12:16:16;18.15;49.59
71039;SHT30;58692;43.212;27.908;2024-03-23T12:18:43;17.80;49.76
71039;SHT30;58692;43.212;27.908;2024-03-23T12:21:09;17.84;50.33
71039;SHT30;58692;43.212;27.908;2024-03-23T12:23:35;18.09;49.00
71039;SHT30;58692;43.212;27.908;2024-03-23T12:26:01;17.95;49.99
71039;SHT30;58692;43.212;27.908;2024-03-23T12:28:28;17.92;51.23
71039;SHT30;58692;43.212;27.908;2024-03-23T12:30:54;17.41;53.26
71039;SHT30;58692;43.212;27.908;2024-03-23T12:33:21;16.86;54.21
71039;SHT30;58692;43.212;27.908;2024-03-23T12:35:47;17.31;54.47
71039;SHT30;58692;43.212;27.908;2024-03-23T12:38:13;16.85;54.88
71039;SHT30;58692;43.212;27.908;2024-03-23T12:40:38;16.92;57.10
71039;SHT30;58692;43.212;27.908;2024-03-23T12:43:04;16.20;56.63
71039;SHT30;58692;43.212;27.908;2024-03-23T12:45:30;16.13;60.08
71039;SHT30;58692;43.212;27.908;2024-03-23T12:47:55;15.90;62.14
71039;SHT30;58692;43.212;27.908;2024-03-23T12:50:21;15.53;63.40
71039;SHT30;58692;43.212;27.908;2024-03-23T12:52:47;14.91;66.23
71039;SHT30;58692;43.212;27.908;2024-03-23T12:55:13;14.61;66.51
71039;SHT30;58692;43.212;27.908;2024-03-23T12:57:39;14.14;69.38
71039;SHT30;58692;43.212;27.908;2024-03-23T13:00:06;13.80;70.80
71039;SHT30;58692;43.212;27.908;2024-03-23T13:02:32;13.79;70.96
71039;SHT30;58692;43.212;27.908;2024-03-23T13:05:00;13.55;71.33
71039;SHT30;58692;43.212;27.908;2024-03-23T13:07:26;13.52;72.05
71039;SHT30;58692;43.212;27.908;2024-03-23T13:09:52;13.34;73.21
71039;SHT30;58692;43.212;27.908;2024-03-23T13:12:19;13.36;73.12
71039;SHT30;58692;43.212;27.908;2024-03-23T13:14:46;13.04;73.91
71039;SHT30;58692;43.212;27.908;2024-03-23T13:17:11;12.88;74.73
71039;SHT30;58692;43.212;27.908;2024-03-23T13:19:37;12.80;74.76
71039;SHT30;58692;43.212;27.908;2024-03-23T13:22:04;12.97;74.62
71039;SHT30;58692;43.212;27.908;2024-03-23T13:24:30;12.95;74.40
71039;SHT30;58692;43.212;27.908;2024-03-23T13:26:56;13.24;73.27
71039;SHT30;58692;43.212;27.908;2024-03-23T13:29:23;13.25;72.59
71039;SHT30;58692;43.212;27.908;2024-03-23T13:31:50;13.18;72.08
71039;SHT30;58692;43.212;27.908;2024-03-23T13:34:16;13.42;71.56
71039;SHT30;58692;43.212;27.908;2024-03-23T13:36:44;13.62;69.73
71039;SHT30;58692;43.212;27.908;2024-03-23T13:39:11;13.35;69.52
71039;SHT30;58692;43.212;27.908;2024-03-23T13:41:39;13.46;68.66
71039;SHT30;58692;43.212;27.908;2024-03-23T13:44:07;13.55;68.87
71039;SHT30;58692;43.212;27.908;2024-03-23T13:46:33;13.59;67.42
71039;SHT30;58692;43.212;27.908;2024-03-23T13:48:59;13.42;68.68
71039;SHT30;58692;43.212;27.908;2024-03-23T13:51:25;13.44;68.80
71039;SHT30;58692;43.212;27.908;2024-03-23T13:53:53;13.49;68.03
71039;SHT30;58692;43.212;27.908;2024-03-23T13:56:20;13.41;67.54
71039;SHT30;58692;43.212;27.908;2024-03-23T13:58:46;13.39;69.94
71039;SHT30;58692;43.212;27.908;2024-03-23T14:01:13;13.28;71.06
71039;SHT30;58692;43.212;27.908;2024-03-23T14:03:39;13.39;70.57
71039;SHT30;58692;43.212;27.908;2024-03-23T14:06:06;13.46;69.81
71039;SHT30;58692;43.212;27.908;2024-03-23T14:08:33;13.38;69.82
71039;SHT30;58692;43.212;27.908;2024-03-23T14:11:01;13.19;69.06
71039;SHT30;58692;43.212;27.908;2024-03-23T14:13:27;13.18;68.35
71039;SHT30;58692;43.212;27.908;2024-03-23T14:15:53;12.88;69.40
71039;SHT30;58692;43.212;27.908;2024-03-23T14:18:19;12.87;70.35
71039;SHT30;58692;43.212;27.908;2024-03-23T14:20:44;12.80;70.39
71039;SHT30;58692;43.212;27.908;2024-03-23T14:23:10;12.67;69.63
71039;SHT30;58692;43.212;27.908;2024-03-23T14:25:35;12.65;71.02
71039;SHT30;58692;43.212;27.908;2024-03-23T14:28:01;12.64;70.41
71039;SHT30;58692;43.212;27.908;2024-03-23T14:30:27;12.59;71.18
71039;SHT30;58692;43.212;27.908;2024-03-23T14:32:52;12.56;70.35
71039;SHT30;58692;43.212;27.908;2024-03-23T14:35:18;12.37;70.31
71039;SHT30;58692;43.212;27.908;2024-03-23T14:37:43;12.34;71.36
71039;SHT30;58692;43.212;27.908;2024-03-23T14:40:09;12.33;71.54
71039;SHT30;58692;43.212;27.908;2024-03-23T14:42:38;12.08;71.46
71039;SHT30;58692;43.212;27.908;2024-03-23T14:45:04;12.15;71.18
71039;SHT30;58692;43.212;27.908;2024-03-23T14:47:31;11.99;73.48
71039;SHT30;58692;43.212;27.908;2024-03-23T14:49:56;12.03;72.81
71039;SHT30;58692;43.212;27.908;2024-03-23T14:52:24;11.93;73.18
71039;SHT30;58692;43.212;27.908;2024-03-23T14:54:50;11.89;74.27
71039;SHT30;58692;43.212;27.908;2024-03-23T14:57:15;11.69;75.62
71039;SHT30;58692;43.212;27.908;2024-03-23T14:59:41;11.69;75.92
71039;SHT30;58692;43.212;27.908;2024-03-23T15:02:07;11.72;75.25
71039;SHT30;58692;43.212;27.908;2024-03-23T15:04:34;11.69;75.24
71039;SHT30;58692;43.212;27.908;2024-03-23T15:07:00;11.62;76.46
71039;SHT30;58692;43.212;27.908;2024-03-23T15:09:26;11.54;75.67
71039;SHT30;58692;43.212;27.908;2024-03-23T15:11:51;11.50;76.74
71039;SHT30;58692;43.212;27.908;2024-03-23T15:14:17;11.42;77.04
71039;SHT30;58692;43.212;27.908;2024-03-23T15:16:43;11.39;77.37
71039;SHT30;58692;43.212;27.908;2024-03-23T15:19:08;11.61;71.60
71039;SHT30;58692;43.212;27.908;2024-03-23T15:21:34;11.74;73.40
71039;SHT30;58692;43.212;27.908;2024-03-23T15:24:01;11.57;75.90
71039;SHT30;58692;43.212;27.908;2024-03-23T15:26:26;11.59;75.11
71039;SHT30;58692;43.212;27.908;2024-03-23T15:28:52;11.47;73.64
71039;SHT30;58692;43.212;27.908;2024-03-23T15:31:18;11.35;76.30
71039;SHT30;58692;43.212;27.908;2024-03-23T15:33:44;11.24;77.05
71039;SHT30;58692;43.212;27.908;2024-03-23T15:36:09;11.27;77.11
71039;SHT30;58692;43.212;27.908;2024-03-23T15:38:35;11.14;77.47
71039;SHT30;58692;43.212;27.908;2024-03-23T15:41:01;11.18;76.08
71039;SHT30;58692;43.212;27.908;2024-03-23T15:43:27;11.28;75.84
71039;SHT30;58692;43.212;27.908;2024-03-23T15:45:57;11.27;75.80
71039;SHT30;58692;43.212;27.908;2024-03-23T15:48:25;11.38;75.23
71039;SHT30;58692;43.212;27.908;2024-03-23T15:50:55;11.47;75.41
71039;SHT30;58692;43.212;27.908;2024-03-23T15:53:22;11.54;74.90
71039;SHT30;58692;43.212;27.908;2024-03-23T15:55:56;11.67;73.64
71039;SHT30;58692;43.212;27.908;2024-03-23T15:58:22;11.68;73.23
71039;SHT30;58692;43.212;27.908;2024-03-23T16:01:05;11.59;73.71
71039;SHT30;58692;43.212;27.908;2024-03-23T16:03:32;11.39;73.32
71039;SHT30;58692;43.212;27.908;2024-03-23T16:06:00;11.42;74.26
71039;SHT30;58692;43.212;27.908;2024-03-23T16:08:26;11.52;74.42
71039;SHT30;58692;43.212;27.908;2024-03-23T16:10:53;11.52;74.24
71039;SHT30;58692;43.212;27.908;2024-03-23T16:13:20;11.58;73.79
71039;SHT30;58692;43.212;27.908;2024-03-23T16:15:46;11.42;74.29
71039;SHT30;58692;43.212;27.908;2024-03-23T16:18:19;11.37;74.50